Time;durP1;ratioP1;P1;durP2;ratioP2;P2;SDS_P1;SDS_P2;PMS_P1;PMS_P2;Temp;Humidity;BMP_temperature;BMP_pressure;BME280_temperature;BME280_humidity;BME280_pressure;Samples;Min_cycle;Max_cycle;Signal;HPM_P1;HPM_P2
2023/05/02 00:01:15;;;;;;;;;;;16.10;55.70;;;;;;5062447;28;19924;-67
2023/05/02 00:03:42;;;;;;;;;;;16.10;55.70;;;;;;5064662;28;19936;-68
2023/05/02 00:06:07;;;;;;;;;;;16.10;55.70;;;;;;5062806;28;19927;-68
2023/05/02 00:08:33;;;;;;;;;;;16.10;55.70;;;;;;5062149;28;19924;-68
2023/05/02 00:10:58;;;;;;;;;;;16.10;55.70;;;;;;5097239;28;19920;-68
2023/05/02 00:13:24;;;;;;;;;;;16.10;55.70;;;;;;5061645;28;20358;-68
2023/05/02 00:15:49;;;;;;;;;;;16.10;55.70;;;;;;5096726;28;19924;-68
2023/05/02 00:18:15;;;;;;;;;;;16.10;55.70;;;;;;5065304;28;20292;-68
2023/05/02 00:20:41;;;;;;;;;;;16.10;55.70;;;;;;5063546;28;19925;-68
2023/05/02 00:23:06;;;;;;;;;;;16.10;55.70;;;;;;5062013;28;20394;-68
2023/05/02 00:25:31;;;;;;;;;;;16.10;55.70;;;;;;5062077;28;19921;-68
2023/05/02 00:27:57;;;;;;;;;;;16.10;55.70;;;;;;5064267;28;19920;-67
2023/05/02 00:30:23;;;;;;;;;;;16.10;55.70;;;;;;5067783;28;19921;-67
2023/05/02 00:32:48;;;;;;;;;;;16.10;55.70;;;;;;5065103;28;20062;-67
2023/05/02 00:35:14;;;;;;;;;;;16.10;55.70;;;;;;5053274;28;19969;-68
2023/05/02 00:37:39;;;;;;;;;;;16.10;55.80;;;;;;5066213;28;19956;-68
2023/05/02 00:40:06;;;;;;;;;;;16.10;55.80;;;;;;5066207;28;19927;-68
2023/05/02 00:42:34;;;;;;;;;;;16.10;55.80;;;;;;5064574;28;19921;-68
2023/05/02 00:45:00;;;;;;;;;;;16.10;55.80;;;;;;5063728;28;19928;-68
2023/05/02 00:47:26;;;;;;;;;;;16.10;55.90;;;;;;5099049;28;19920;-68
2023/05/02 00:49:51;;;;;;;;;;;16.10;55.90;;;;;;5065688;28;19925;-68
2023/05/02 00:52:17;;;;;;;;;;;16.10;55.90;;;;;;5067618;28;19920;-68
2023/05/02 00:54:43;;;;;;;;;;;16.10;55.90;;;;;;5065745;28;19925;-68
2023/05/02 00:57:08;;;;;;;;;;;16.00;55.90;;;;;;5064596;28;19933;-68
2023/05/02 00:59:35;;;;;;;;;;;16.10;56.00;;;;;;5068440;28;19943;-68
2023/05/02 01:02:10;;;;;;;;;;;16.00;55.90;;;;;;5064183;28;19991;-69
2023/05/02 01:07:37;;;;;;;;;;;16.00;56.00;;;;;;5097366;27;19923;-68
2023/05/02 01:12:46;;;;;;;;;;;16.00;56.00;;;;;;5089627;27;19920;-68
2023/05/02 01:15:15;;;;;;;;;;;16.10;56.10;;;;;;5086477;28;19986;-69
2023/05/02 01:17:42;;;;;;;;;;;16.00;56.00;;;;;;5084180;28;19954;-69
2023/05/02 01:20:10;;;;;;;;;;;16.00;56.00;;;;;;5080870;28;19927;-69
2023/05/02 01:22:39;;;;;;;;;;;16.00;56.10;;;;;;5084543;28;19924;-68
2023/05/02 01:25:24;;;;;;;;;;;16.00;56.10;;;;;;5121866;28;19920;-68
2023/05/02 01:27:55;;;;;;;;;;;16.00;56.10;;;;;;5086007;28;20364;-68
2023/05/02 01:30:21;;;;;;;;;;;16.00;56.20;;;;;;5086361;28;20292;-68
2023/05/02 01:32:48;;;;;;;;;;;16.00;56.20;;;;;;5087750;28;19924;-68
2023/05/02 01:35:14;;;;;;;;;;;16.00;56.20;;;;;;5086881;28;20425;-68
2023/05/02 01:37:41;;;;;;;;;;;16.00;56.20;;;;;;5120097;28;19920;-68
2023/05/02 01:40:09;;;;;;;;;;;16.00;56.20;;;;;;5086293;28;19920;-69
2023/05/02 01:42:36;;;;;;;;;;;16.00;56.30;;;;;;5087589;28;19973;-68
2023/05/02 01:45:02;;;;;;;;;;;15.90;56.20;;;;;;5087354;28;19920;-68
2023/05/02 01:47:29;;;;;;;;;;;15.90;56.30;;;;;;5086277;28;19920;-68
2023/05/02 01:49:56;;;;;;;;;;;16.00;56.30;;;;;;5085753;28;19921;-68
2023/05/02 01:52:22;;;;;;;;;;;16.00;56.30;;;;;;5087363;28;20458;-68
2023/05/02 01:54:49;;;;;;;;;;;16.00;56.30;;;;;;5080827;28;19924;-68
2023/05/02 01:57:16;;;;;;;;;;;15.90;56.30;;;;;;5087438;28;19920;-68
2023/05/02 01:59:42;;;;;;;;;;;15.90;56.30;;;;;;5087287;28;19945;-69
2023/05/02 02:02:09;;;;;;;;;;;15.90;56.30;;;;;;5103703;28;19927;-68
2023/05/02 02:04:36;;;;;;;;;;;15.90;56.30;;;;;;5086826;28;20515;-68
2023/05/02 02:07:05;;;;;;;;;;;16.00;56.30;;;;;;5083887;28;19927;-68
2023/05/02 02:09:31;;;;;;;;;;;16.00;56.40;;;;;;5118142;28;19928;-68
2023/05/02 02:12:05;;;;;;;;;;;15.90;56.30;;;;;;5085131;28;19931;-68
2023/05/02 02:14:33;;;;;;;;;;;15.90;56.40;;;;;;5083455;28;19926;-68
2023/05/02 02:17:00;;;;;;;;;;;15.90;56.40;;;;;;5085858;28;19924;-68
2023/05/02 02:19:28;;;;;;;;;;;15.90;56.40;;;;;;5119476;28;20011;-69
2023/05/02 02:21:54;;;;;;;;;;;15.90;56.40;;;;;;5084197;28;20395;-68
2023/05/02 02:24:21;;;;;;;;;;;15.90;56.40;;;;;;5106493;28;19963;-68
2023/05/02 02:26:46;;;;;;;;;;;15.90;56.40;;;;;;5072992;28;20414;-68
2023/05/02 02:29:12;;;;;;;;;;;15.90;56.40;;;;;;5071918;28;19956;-68
2023/05/02 02:31:38;;;;;;;;;;;15.90;56.40;;;;;;5072665;28;19928;-68
2023/05/02 02:34:04;;;;;;;;;;;15.90;56.40;;;;;;5072699;28;19975;-68
2023/05/02 02:36:32;;;;;;;;;;;15.90;57.10;;;;;;5072403;28;20050;-68
2023/05/02 02:39:17;;;;;;;;;;;15.90;56.50;;;;;;5073384;28;19927;-68
2023/05/02 02:41:48;;;;;;;;;;;15.90;56.40;;;;;;5066257;28;19924;-68
2023/05/02 02:44:24;;;;;;;;;;;15.80;56.40;;;;;;5071698;28;20545;-68
2023/05/02 02:47:01;;;;;;;;;;;15.90;56.40;;;;;;5071983;28;19920;-68
2023/05/02 02:49:46;;;;;;;;;;;15.90;56.40;;;;;;5071100;28;20003;-68
2023/05/02 02:54:57;;;;;;;;;;;15.80;56.30;;;;;;5097194;27;19943;-68
2023/05/02 02:57:25;;;;;;;;;;;15.80;56.30;;;;;;5103418;28;20043;-68
2023/05/02 02:59:57;;;;;;;;;;;15.90;57.10;;;;;;5086782;28;19928;-68
2023/05/02 03:02:27;;;;;;;;;;;15.80;56.30;;;;;;5080924;28;19924;-68
2023/05/02 03:04:52;;;;;;;;;;;15.80;56.30;;;;;;5087144;28;19927;-68
2023/05/02 03:07:18;;;;;;;;;;;15.80;56.30;;;;;;5086215;28;20309;-69
2023/05/02 03:09:44;;;;;;;;;;;15.80;56.30;;;;;;5086254;28;19994;-69
2023/05/02 03:12:10;;;;;;;;;;;15.80;56.30;;;;;;5084844;28;19978;-68
2023/05/02 03:14:36;;;;;;;;;;;15.80;56.30;;;;;;5086175;28;19924;-69
2023/05/02 03:17:02;;;;;;;;;;;15.80;56.30;;;;;;5086419;28;20016;-69
2023/05/02 03:19:28;;;;;;;;;;;15.80;56.20;;;;;;5086369;28;19924;-69
2023/05/02 03:21:53;;;;;;;;;;;15.80;56.50;;;;;;5086009;28;20437;-69
2023/05/02 03:24:19;;;;;;;;;;;15.80;56.20;;;;;;5087403;28;19921;-69
2023/05/02 03:26:46;;;;;;;;;;;15.80;56.30;;;;;;5086177;28;19924;-69
2023/05/02 03:29:12;;;;;;;;;;;15.80;56.30;;;;;;5086583;28;19920;-69
2023/05/02 03:31:37;;;;;;;;;;;15.80;56.20;;;;;;5086793;28;20124;-69
2023/05/02 03:34:03;;;;;;;;;;;15.80;56.20;;;;;;5079068;28;20025;-69
2023/05/02 03:36:28;;;;;;;;;;;15.70;56.20;;;;;;5087266;28;20007;-69
2023/05/02 03:38:53;;;;;;;;;;;15.80;56.20;;;;;;5085647;28;19928;-69
2023/05/02 03:41:19;;;;;;;;;;;15.70;56.20;;;;;;5085996;28;20292;-68
2023/05/02 03:43:45;;;;;;;;;;;15.80;56.20;;;;;;5085690;28;19939;-69
2023/05/02 03:46:11;;;;;;;;;;;15.70;56.20;;;;;;5086159;28;19981;-69
2023/05/02 03:48:36;;;;;;;;;;;15.70;56.20;;;;;;5082162;28;19960;-69
2023/05/02 03:51:02;;;;;;;;;;;15.70;56.20;;;;;;5086718;28;20280;-69
2023/05/02 03:53:28;;;;;;;;;;;15.70;56.10;;;;;;5085212;28;19964;-68
2023/05/02 03:55:54;;;;;;;;;;;15.70;56.10;;;;;;5085998;28;19932;-68
2023/05/02 03:58:19;;;;;;;;;;;15.70;56.20;;;;;;5085649;28;20449;-68
2023/05/02 04:00:45;;;;;;;;;;;15.70;56.10;;;;;;5086413;28;19924;-69
2023/05/02 04:03:11;;;;;;;;;;;15.70;56.10;;;;;;5085529;28;19920;-69
2023/05/02 04:05:36;;;;;;;;;;;15.70;56.10;;;;;;5076524;28;19977;-69
2023/05/02 04:08:02;;;;;;;;;;;15.70;56.10;;;;;;5071922;28;20370;-69
2023/05/02 04:10:27;;;;;;;;;;;15.70;56.10;;;;;;5073289;28;19974;-69
2023/05/02 04:12:53;;;;;;;;;;;15.60;56.00;;;;;;5072833;28;19924;-69
2023/05/02 04:15:18;;;;;;;;;;;15.70;56.00;;;;;;5071604;28;20011;-69
2023/05/02 04:17:45;;;;;;;;;;;15.70;56.00;;;;;;5071429;28;19974;-69
2023/05/02 04:20:11;;;;;;;;;;;15.60;55.90;;;;;;5072636;28;19967;-69
2023/05/02 04:22:38;;;;;;;;;;;15.60;55.90;;;;;;5071533;28;19967;-69
2023/05/02 04:25:05;;;;;;;;;;;15.70;55.90;;;;;;5072083;28;19920;-69
2023/05/02 04:27:30;;;;;;;;;;;15.70;55.90;;;;;;5071656;28;19973;-69
2023/05/02 04:29:56;;;;;;;;;;;15.60;56.60;;;;;;5105492;28;19924;-68
2023/05/02 04:32:21;;;;;;;;;;;15.60;55.80;;;;;;5071140;28;19920;-69
2023/05/02 04:34:47;;;;;;;;;;;15.60;55.80;;;;;;5069594;28;19924;-68
2023/05/02 04:37:12;;;;;;;;;;;15.60;55.70;;;;;;5072905;28;19974;-69
2023/05/02 04:39:38;;;;;;;;;;;15.60;55.70;;;;;;5105102;28;20367;-68
2023/05/02 04:42:03;;;;;;;;;;;15.60;55.70;;;;;;5072536;28;19921;-68
2023/05/02 04:44:29;;;;;;;;;;;15.60;55.70;;;;;;5070962;28;19927;-68
2023/05/02 04:46:54;;;;;;;;;;;15.60;56.30;;;;;;5105307;28;20359;-68
2023/05/02 04:49:20;;;;;;;;;;;15.60;55.60;;;;;;5071531;28;19927;-68
2023/05/02 04:51:45;;;;;;;;;;;15.60;55.50;;;;;;5070982;28;19943;-68
2023/05/02 04:54:11;;;;;;;;;;;15.60;55.50;;;;;;5105842;28;19931;-68
2023/05/02 04:56:37;;;;;;;;;;;15.60;55.50;;;;;;5072100;28;19978;-68
2023/05/02 04:59:02;;;;;;;;;;;15.60;55.50;;;;;;5070962;28;20378;-69
2023/05/02 05:01:28;;;;;;;;;;;15.50;55.40;;;;;;5104800;28;19920;-69
2023/05/02 05:03:53;;;;;;;;;;;15.60;55.40;;;;;;5070602;28;19924;-68
2023/05/02 05:06:19;;;;;;;;;;;15.50;55.40;;;;;;5070816;28;19924;-69
2023/05/02 05:08:45;;;;;;;;;;;15.50;55.30;;;;;;5072385;28;19974;-68
2023/05/02 05:11:11;;;;;;;;;;;15.50;55.30;;;;;;5071671;28;19974;-68
2023/05/02 05:13:36;;;;;;;;;;;15.50;55.30;;;;;;5070426;28;19936;-68
2023/05/02 05:16:02;;;;;;;;;;;15.50;55.20;;;;;;5071260;28;19981;-68
2023/05/02 05:18:28;;;;;;;;;;;15.50;55.20;;;;;;5065501;28;19921;-69
2023/05/02 05:20:53;;;;;;;;;;;15.50;55.10;;;;;;5071908;28;19928;-68
2023/05/02 05:23:19;;;;;;;;;;;15.50;55.10;;;;;;5071499;28;20399;-68
2023/05/02 05:25:44;;;;;;;;;;;15.50;55.00;;;;;;5105861;28;19925;-68
2023/05/02 05:28:10;;;;;;;;;;;15.50;55.10;;;;;;5070464;28;19924;-68
2023/05/02 05:30:35;;;;;;;;;;;15.50;55.00;;;;;;5071519;28;19920;-68
2023/05/02 05:33:01;;;;;;;;;;;15.50;54.90;;;;;;5067594;28;19925;-68
2023/05/02 05:35:26;;;;;;;;;;;15.50;54.90;;;;;;5069822;28;19931;-68
2023/05/02 05:37:52;;;;;;;;;;;15.50;54.80;;;;;;5070240;28;20329;-68
2023/05/02 05:40:18;;;;;;;;;;;15.50;54.80;;;;;;5071235;28;19928;-68
2023/05/02 05:42:43;;;;;;;;;;;15.50;54.70;;;;;;5072536;28;19958;-68
2023/05/02 05:45:09;;;;;;;;;;;15.50;54.70;;;;;;5069831;28;19924;-68
2023/05/02 05:47:34;;;;;;;;;;;15.40;54.60;;;;;;5065207;28;19920;-68
2023/05/02 05:50:00;;;;;;;;;;;15.40;54.50;;;;;;5069778;28;19978;-68
2023/05/02 05:52:25;;;;;;;;;;;15.40;54.60;;;;;;5071398;28;19920;-68
2023/05/02 05:54:53;;;;;;;;;;;15.40;54.40;;;;;;5103331;28;19924;-68
2023/05/02 05:57:18;;;;;;;;;;;15.40;54.40;;;;;;5069687;28;20407;-68
2023/05/02 05:59:44;;;;;;;;;;;15.40;54.40;;;;;;5071188;28;19920;-68
2023/05/02 06:02:10;;;;;;;;;;;15.40;54.30;;;;;;5070859;28;20031;-68
2023/05/02 06:04:35;;;;;;;;;;;15.40;54.20;;;;;;5069972;28;19935;-68
2023/05/02 06:07:00;;;;;;;;;;;15.40;54.20;;;;;;5069257;28;20384;-68
2023/05/02 06:09:29;;;;;;;;;;;15.40;54.10;;;;;;5067086;28;19932;-68
2023/05/02 06:11:54;;;;;;;;;;;15.40;54.10;;;;;;5071185;28;19924;-68
2023/05/02 06:14:20;;;;;;;;;;;15.40;54.00;;;;;;5069584;28;19967;-68
2023/05/02 06:16:45;;;;;;;;;;;15.40;54.00;;;;;;5069418;28;19982;-68
2023/05/02 06:19:11;;;;;;;;;;;15.40;53.90;;;;;;5069690;28;19924;-68
2023/05/02 06:21:36;;;;;;;;;;;15.40;53.90;;;;;;5070807;28;19931;-68
2023/05/02 06:24:02;;;;;;;;;;;15.40;53.90;;;;;;5069478;28;19925;-68
2023/05/02 06:26:27;;;;;;;;;;;15.40;53.90;;;;;;5069108;28;19920;-68
2023/05/02 06:28:53;;;;;;;;;;;15.40;53.80;;;;;;5069131;28;19925;-68
2023/05/02 06:31:19;;;;;;;;;;;15.40;53.80;;;;;;5070565;28;19928;-68
2023/05/02 06:33:45;;;;;;;;;;;15.40;53.80;;;;;;5070115;28;19936;-68
2023/05/02 06:36:10;;;;;;;;;;;15.40;54.40;;;;;;5086060;28;19924;-68
2023/05/02 06:38:36;;;;;;;;;;;15.40;53.70;;;;;;5068855;28;19927;-68
2023/05/02 06:41:01;;;;;;;;;;;15.40;53.60;;;;;;5069353;28;19920;-68
2023/05/02 06:43:27;;;;;;;;;;;15.40;53.50;;;;;;5069077;28;19931;-67
2023/05/02 06:45:53;;;;;;;;;;;15.40;53.40;;;;;;5069272;28;19924;-67
2023/05/02 06:48:20;;;;;;;;;;;15.40;53.40;;;;;;5102972;28;19927;-67
2023/05/02 06:50:46;;;;;;;;;;;15.30;53.40;;;;;;5071545;28;19920;-68
2023/05/02 06:53:11;;;;;;;;;;;15.30;53.30;;;;;;5068717;28;19928;-67
2023/05/02 06:55:37;;;;;;;;;;;15.30;53.30;;;;;;5071719;28;19920;-68
2023/05/02 06:58:02;;;;;;;;;;;15.30;53.20;;;;;;5070250;28;20379;-68
2023/05/02 07:00:28;;;;;;;;;;;15.30;53.10;;;;;;5070202;28;20392;-68
2023/05/02 07:02:53;;;;;;;;;;;15.30;53.00;;;;;;5070091;28;20081;-67
2023/05/02 07:05:19;;;;;;;;;;;15.30;52.90;;;;;;5070194;28;19924;-68
2023/05/02 07:07:44;;;;;;;;;;;15.30;52.80;;;;;;5068588;28;19921;-68
2023/05/02 07:10:10;;;;;;;;;;;15.30;52.80;;;;;;5102618;28;20338;-67
2023/05/02 07:12:36;;;;;;;;;;;15.30;52.80;;;;;;5069919;28;20007;-67
2023/05/02 07:15:01;;;;;;;;;;;15.30;52.80;;;;;;5062581;28;19969;-67
2023/05/02 07:17:27;;;;;;;;;;;15.30;52.70;;;;;;5070237;28;19973;-68
2023/05/02 07:19:52;;;;;;;;;;;15.30;52.60;;;;;;5068563;28;20019;-67
2023/05/02 07:22:18;;;;;;;;;;;15.30;52.60;;;;;;5068564;28;19920;-68
2023/05/02 07:24:44;;;;;;;;;;;15.30;52.50;;;;;;5069949;28;19931;-67
2023/05/02 07:27:10;;;;;;;;;;;15.30;52.50;;;;;;5064260;28;20333;-67
2023/05/02 07:29:35;;;;;;;;;;;15.30;53.20;;;;;;5069676;28;19924;-67
2023/05/02 07:32:01;;;;;;;;;;;15.30;52.40;;;;;;5069968;28;20287;-67
2023/05/02 07:34:27;;;;;;;;;;;15.30;52.30;;;;;;5069755;28;19940;-67
2023/05/02 07:36:52;;;;;;;;;;;15.30;52.30;;;;;;5069723;28;19979;-67
2023/05/02 07:39:18;;;;;;;;;;;15.30;52.30;;;;;;5070088;28;19977;-68
2023/05/02 07:41:43;;;;;;;;;;;15.30;52.30;;;;;;5073960;28;19943;-67
2023/05/02 07:44:09;;;;;;;;;;;15.30;52.20;;;;;;5074621;28;19920;-67
2023/05/02 07:46:34;;;;;;;;;;;15.30;52.10;;;;;;5072315;28;20387;-67
2023/05/02 07:49:00;;;;;;;;;;;15.30;52.10;;;;;;5073566;28;19955;-65
2023/05/02 07:51:25;;;;;;;;;;;15.30;52.10;;;;;;5100224;28;20568;-67
2023/05/02 07:53:54;;;;;;;;;;;15.30;52.00;;;;;;5068073;28;19924;-67
2023/05/02 07:56:20;;;;;;;;;;;15.30;52.80;;;;;;5067986;28;19931;-67
2023/05/02 07:58:45;;;;;;;;;;;15.30;52.00;;;;;;5073010;28;19920;-68
2023/05/02 08:01:11;;;;;;;;;;;15.30;52.00;;;;;;5072545;28;19920;-68
2023/05/02 08:03:36;;;;;;;;;;;15.30;51.90;;;;;;5105485;28;20020;-68
2023/05/02 08:06:02;;;;;;;;;;;15.30;51.90;;;;;;5072674;28;19924;-68
2023/05/02 08:08:28;;;;;;;;;;;15.30;52.00;;;;;;5071548;28;19974;-68
2023/05/02 08:10:53;;;;;;;;;;;15.40;52.00;;;;;;5074142;28;19928;-68
2023/05/02 08:13:19;;;;;;;;;;;15.40;52.00;;;;;;5072652;28;19924;-68
2023/05/02 08:15:45;;;;;;;;;;;15.40;52.10;;;;;;5069958;28;19947;-68
2023/05/02 08:18:10;;;;;;;;;;;15.40;51.90;;;;;;5070558;28;19974;-68
2023/05/02 08:20:36;;;;;;;;;;;15.40;51.90;;;;;;5068292;28;20395;-67
2023/05/02 08:23:01;;;;;;;;;;;15.40;51.80;;;;;;5070839;28;19950;-65
2023/05/02 08:25:28;;;;;;;;;;;15.50;52.10;;;;;;5070828;28;19920;-65
2023/05/02 08:27:54;;;;;;;;;;;15.50;52.30;;;;;;5071069;28;19999;-66
2023/05/02 08:30:20;;;;;;;;;;;15.60;52.60;;;;;;5071306;28;20359;-67
2023/05/02 08:32:46;;;;;;;;;;;15.60;52.60;;;;;;5072436;28;20287;-65
2023/05/02 08:35:11;;;;;;;;;;;15.60;53.40;;;;;;5102312;28;19974;-67
2023/05/02 08:37:38;;;;;;;;;;;15.60;52.70;;;;;;5072183;28;19925;-67
2023/05/02 08:40:03;;;;;;;;;;;15.60;52.70;;;;;;5070819;28;19970;-67
2023/05/02 08:42:31;;;;;;;;;;;15.60;52.50;;;;;;5067439;28;19920;-66
2023/05/02 08:44:57;;;;;;;;;;;15.60;52.50;;;;;;5071341;28;19925;-65
2023/05/02 08:47:24;;;;;;;;;;;15.70;52.50;;;;;;5071591;28;19920;-67
2023/05/02 08:49:50;;;;;;;;;;;15.70;52.60;;;;;;5102025;28;19928;-66
2023/05/02 08:52:18;;;;;;;;;;;15.70;52.70;;;;;;5071516;28;19920;-67
2023/05/02 08:54:43;;;;;;;;;;;15.70;52.70;;;;;;5069737;28;19928;-66
2023/05/02 08:57:09;;;;;;;;;;;15.80;52.80;;;;;;5071339;28;19931;-65
2023/05/02 08:59:34;;;;;;;;;;;15.80;52.70;;;;;;5071213;28;19924;-67
2023/05/02 09:02:03;;;;;;;;;;;15.80;52.70;;;;;;5068443;28;19921;-66
2023/05/02 09:04:31;;;;;;;;;;;15.80;52.60;;;;;;5069986;28;20342;-66
2023/05/02 09:06:56;;;;;;;;;;;15.80;52.60;;;;;;5068306;28;19928;-66
2023/05/02 09:09:22;;;;;;;;;;;15.80;52.50;;;;;;5070189;28;19920;-65
2023/05/02 09:11:48;;;;;;;;;;;15.80;52.30;;;;;;5069469;28;19932;-63
2023/05/02 09:14:14;;;;;;;;;;;15.80;52.30;;;;;;5067240;28;20003;-66
2023/05/02 09:16:39;;;;;;;;;;;15.80;52.20;;;;;;5069477;28;20192;-66
2023/05/02 09:19:08;;;;;;;;;;;15.90;52.30;;;;;;5100209;28;19927;-68
2023/05/02 09:21:36;;;;;;;;;;;15.80;52.20;;;;;;5071076;28;20019;-66
2023/05/02 09:24:12;;;;;;;;;;;15.90;52.30;;;;;;5068285;28;19921;-65
2023/05/02 09:26:38;;;;;;;;;;;15.90;52.10;;;;;;5068652;28;19973;-66
2023/05/02 09:29:04;;;;;;;;;;;15.90;52.20;;;;;;5067233;28;20413;-64
2023/05/02 09:31:34;;;;;;;;;;;15.90;52.20;;;;;;5069932;28;20380;-67
2023/05/02 09:34:07;;;;;;;;;;;15.90;52.20;;;;;;5084461;28;19936;-65
2023/05/02 09:36:38;;;;;;;;;;;15.90;52.10;;;;;;5096458;28;19975;-64
2023/05/02 09:39:08;;;;;;;;;;;15.90;52.10;;;;;;5068856;28;19930;-64
2023/05/02 09:41:42;;;;;;;;;;;16.00;51.90;;;;;;5071898;28;20007;-64
2023/05/02 09:44:10;;;;;;;;;;;16.00;51.90;;;;;;5071232;28;20273;-65
2023/05/02 09:46:40;;;;;;;;;;;16.00;51.80;;;;;;5070246;28;20661;-65
2023/05/02 09:49:06;;;;;;;;;;;16.00;51.70;;;;;;5068790;28;19931;-65
2023/05/02 09:51:31;;;;;;;;;;;16.00;51.60;;;;;;5069578;28;19921;-65
2023/05/02 09:53:56;;;;;;;;;;;16.00;51.60;;;;;;5097435;28;19981;-65
2023/05/02 09:56:22;;;;;;;;;;;16.00;51.60;;;;;;5099404;28;20376;-64
2023/05/02 09:58:47;;;;;;;;;;;16.00;51.50;;;;;;5067043;28;19980;-66
2023/05/02 10:01:14;;;;;;;;;;;16.00;51.50;;;;;;5070294;28;20299;-66
2023/05/02 10:03:40;;;;;;;;;;;16.00;51.30;;;;;;5068744;28;20383;-66
2023/05/02 10:06:07;;;;;;;;;;;16.00;51.10;;;;;;5097105;28;19921;-66
2023/05/02 10:08:32;;;;;;;;;;;16.00;50.90;;;;;;5069602;28;19924;-66
2023/05/02 10:10:58;;;;;;;;;;;16.00;50.70;;;;;;5070901;28;19926;-66
2023/05/02 10:13:26;;;;;;;;;;;16.00;50.60;;;;;;5069673;28;19934;-66
2023/05/02 10:15:57;;;;;;;;;;;15.90;50.40;;;;;;5069602;28;20006;-66
2023/05/02 10:18:27;;;;;;;;;;;15.90;50.40;;;;;;5069939;28;19927;-66
2023/05/02 10:20:57;;;;;;;;;;;15.90;50.20;;;;;;5071422;28;20190;-66
2023/05/02 10:23:24;;;;;;;;;;;15.90;50.10;;;;;;5070787;28;20196;-66
2023/05/02 10:25:50;;;;;;;;;;;15.90;50.00;;;;;;5099188;28;19924;-66
2023/05/02 10:28:15;;;;;;;;;;;15.90;49.90;;;;;;5067983;28;19923;-65
2023/05/02 10:30:41;;;;;;;;;;;15.90;49.80;;;;;;5068989;28;19938;-66
2023/05/02 10:33:07;;;;;;;;;;;15.90;49.80;;;;;;5065448;28;19955;-66
2023/05/02 10:35:35;;;;;;;;;;;15.90;50.00;;;;;;5069897;28;19923;-64
2023/05/02 10:38:00;;;;;;;;;;;15.90;50.10;;;;;;5064811;28;20423;-64
2023/05/02 10:40:26;;;;;;;;;;;16.00;50.10;;;;;;5067253;28;19999;-64
2023/05/02 10:42:52;;;;;;;;;;;16.00;50.10;;;;;;5102781;28;19917;-65
2023/05/02 10:45:34;;;;;;;;;;;16.00;50.10;;;;;;5068538;28;19923;-65
2023/05/02 10:48:12;;;;;;;;;;;16.00;50.10;;;;;;5066309;28;20441;-65
2023/05/02 10:53:26;;;;;;;;;;;16.00;50.10;;;;;;5079267;28;19915;-65
2023/05/02 10:58:48;;;;;;;;;;;16.10;50.00;;;;;;5096425;27;19914;-65
2023/05/02 11:04:09;;;;;;;;;;;16.10;49.90;;;;;;5096219;27;19908;-66
2023/05/02 11:06:36;;;;;;;;;;;16.10;49.70;;;;;;5081849;28;19916;-66
2023/05/02 11:11:57;;;;;;;;;;;16.10;49.40;;;;;;5087513;27;19912;-66
2023/05/02 11:25:05;;;;;;;;;;;16.10;49.30;;;;;;5067648;28;19913;-64
2023/05/02 11:30:11;;;;;;;;;;;16.20;49.40;;;;;;5093581;27;19912;-65
2023/05/02 11:35:25;;;;;;;;;;;16.20;49.40;;;;;;5140849;27;20393;-67
2023/05/02 11:37:52;;;;;;;;;;;16.20;49.10;;;;;;5125528;28;20359;-67
2023/05/02 11:40:18;;;;;;;;;;;16.20;49.10;;;;;;5128032;28;19955;-67
2023/05/02 11:42:44;;;;;;;;;;;16.20;49.10;;;;;;5126410;28;20405;-67
2023/05/02 11:45:09;;;;;;;;;;;16.20;48.90;;;;;;5127867;28;19923;-67
2023/05/02 11:47:35;;;;;;;;;;;16.10;48.80;;;;;;5121696;28;19927;-67
2023/05/02 11:50:03;;;;;;;;;;;16.10;48.80;;;;;;5128459;28;19915;-67
2023/05/02 11:52:29;;;;;;;;;;;16.00;48.80;;;;;;5127495;28;19922;-67
2023/05/02 11:54:55;;;;;;;;;;;16.00;48.90;;;;;;5128086;27;20270;-67
2023/05/02 11:57:21;;;;;;;;;;;16.00;48.80;;;;;;5127294;28;20247;-67
2023/05/02 11:59:49;;;;;;;;;;;16.00;48.90;;;;;;5127318;28;20266;-67
2023/05/02 12:02:15;;;;;;;;;;;15.90;48.90;;;;;;5129542;27;19961;-67
2023/05/02 12:04:43;;;;;;;;;;;15.90;48.90;;;;;;5127273;28;19915;-67
2023/05/02 12:07:08;;;;;;;;;;;15.90;48.90;;;;;;5127140;28;20282;-68
2023/05/02 12:09:34;;;;;;;;;;;15.90;49.00;;;;;;5127025;28;19931;-68
2023/05/02 12:12:01;;;;;;;;;;;15.80;48.90;;;;;;5128193;28;19996;-68
2023/05/02 12:14:27;;;;;;;;;;;15.80;48.90;;;;;;5127866;27;19927;-67
2023/05/02 12:16:54;;;;;;;;;;;15.80;48.90;;;;;;5126523;28;19916;-67
2023/05/02 12:19:20;;;;;;;;;;;15.80;48.90;;;;;;5125093;28;19915;-68
2023/05/02 12:21:46;;;;;;;;;;;15.70;48.90;;;;;;5127181;28;19920;-67
2023/05/02 12:24:13;;;;;;;;;;;15.80;48.90;;;;;;5127442;28;19919;-68
2023/05/02 12:26:39;;;;;;;;;;;15.70;48.80;;;;;;5126237;28;19916;-67
2023/05/02 12:29:06;;;;;;;;;;;15.70;48.70;;;;;;5127405;27;19915;-67
2023/05/02 12:31:32;;;;;;;;;;;15.70;48.80;;;;;;5128144;27;19927;-67
2023/05/02 12:33:59;;;;;;;;;;;15.70;48.80;;;;;;5126626;28;19919;-67
2023/05/02 12:36:27;;;;;;;;;;;15.70;48.80;;;;;;5126213;28;19916;-67
2023/05/02 12:38:55;;;;;;;;;;;15.70;48.90;;;;;;5121882;28;20557;-67
2023/05/02 12:41:37;;;;;;;;;;;15.70;48.90;;;;;;5127694;27;19954;-68
2023/05/02 12:44:03;;;;;;;;;;;15.70;48.90;;;;;;5125805;28;19964;-67
2023/05/02 12:46:30;;;;;;;;;;;15.60;48.80;;;;;;5113920;28;19922;-68
2023/05/02 12:49:11;;;;;;;;;;;15.60;48.80;;;;;;5113249;28;20306;-67
2023/05/02 12:51:38;;;;;;;;;;;15.60;48.80;;;;;;5106937;28;20319;-67
2023/05/02 12:54:03;;;;;;;;;;;15.60;48.90;;;;;;5113430;28;20015;-68
2023/05/02 12:56:31;;;;;;;;;;;15.60;48.90;;;;;;5111944;28;20010;-67
2023/05/02 12:59:00;;;;;;;;;;;15.60;48.90;;;;;;5112122;28;20282;-67
2023/05/02 13:01:25;;;;;;;;;;;15.60;48.90;;;;;;5111832;28;19924;-67
2023/05/02 13:03:51;;;;;;;;;;;15.60;48.90;;;;;;5111967;28;19965;-67
2023/05/02 13:06:17;;;;;;;;;;;15.60;49.00;;;;;;5112115;28;19915;-68
2023/05/02 13:08:43;;;;;;;;;;;15.60;48.90;;;;;;5112180;28;19919;-67
2023/05/02 13:11:08;;;;;;;;;;;15.60;48.90;;;;;;5111648;28;20272;-68
2023/05/02 13:13:34;;;;;;;;;;;15.60;48.90;;;;;;5112995;28;20479;-68
2023/05/02 13:16:00;;;;;;;;;;;15.60;48.90;;;;;;5112944;28;19924;-68
2023/05/02 13:18:26;;;;;;;;;;;15.50;48.90;;;;;;5111837;28;19920;-67
2023/05/02 13:20:52;;;;;;;;;;;15.60;49.00;;;;;;5112489;28;19915;-67
2023/05/02 13:23:18;;;;;;;;;;;15.50;48.80;;;;;;5113193;28;19922;-67
2023/05/02 13:25:43;;;;;;;;;;;15.60;49.00;;;;;;5112052;28;19916;-67
2023/05/02 13:28:09;;;;;;;;;;;15.50;48.90;;;;;;5113200;28;20344;-68
2023/05/02 13:30:34;;;;;;;;;;;15.50;48.90;;;;;;5111597;28;19915;-67
2023/05/02 13:33:00;;;;;;;;;;;15.50;48.90;;;;;;5111733;28;19977;-68
2023/05/02 13:35:26;;;;;;;;;;;15.50;48.90;;;;;;5111320;28;19924;-68
2023/05/02 13:37:51;;;;;;;;;;;15.50;48.90;;;;;;5108708;28;20313;-68
2023/05/02 13:40:17;;;;;;;;;;;15.50;48.90;;;;;;5111549;28;20370;-68
2023/05/02 13:42:43;;;;;;;;;;;15.50;48.90;;;;;;5114066;27;19931;-67
2023/05/02 13:45:09;;;;;;;;;;;15.50;48.90;;;;;;5112145;28;20274;-67
2023/05/02 13:47:34;;;;;;;;;;;15.50;48.90;;;;;;5111677;28;19916;-67
2023/05/02 13:50:00;;;;;;;;;;;15.50;48.90;;;;;;5112341;28;19915;-67
2023/05/02 13:52:25;;;;;;;;;;;15.50;48.90;;;;;;5112468;28;19926;-67
2023/05/02 13:54:51;;;;;;;;;;;15.50;48.80;;;;;;5112333;28;19931;-67
2023/05/02 13:57:16;;;;;;;;;;;15.50;48.80;;;;;;5111707;28;19932;-67
2023/05/02 13:59:42;;;;;;;;;;;15.50;48.80;;;;;;5112756;28;19967;-67
2023/05/02 14:02:07;;;;;;;;;;;15.50;48.80;;;;;;5111360;28;19916;-67
2023/05/02 14:04:35;;;;;;;;;;;15.50;48.80;;;;;;5110585;28;19920;-67
2023/05/02 14:07:01;;;;;;;;;;;15.50;48.80;;;;;;5112989;28;20239;-68
2023/05/02 14:09:26;;;;;;;;;;;15.50;48.80;;;;;;5111872;28;20334;-68
2023/05/02 14:11:52;;;;;;;;;;;15.50;48.80;;;;;;5111270;28;19922;-67
2023/05/02 14:14:18;;;;;;;;;;;15.50;48.80;;;;;;5110392;28;19924;-68
2023/05/02 14:16:43;;;;;;;;;;;15.50;48.80;;;;;;5111874;28;20405;-67
2023/05/02 14:19:09;;;;;;;;;;;15.50;48.80;;;;;;5110381;28;20011;-67
2023/05/02 14:21:36;;;;;;;;;;;15.40;48.70;;;;;;5112387;28;19955;-68
2023/05/02 14:24:01;;;;;;;;;;;15.50;48.80;;;;;;5112892;28;19916;-67
2023/05/02 14:26:27;;;;;;;;;;;15.50;48.80;;;;;;5111354;28;19916;-67
2023/05/02 14:28:52;;;;;;;;;;;15.50;48.70;;;;;;5110403;28;19939;-67
2023/05/02 14:31:18;;;;;;;;;;;15.40;48.70;;;;;;5110982;28;19916;-67
2023/05/02 14:33:43;;;;;;;;;;;15.40;48.70;;;;;;5111520;28;19920;-67
2023/05/02 14:36:09;;;;;;;;;;;15.50;48.70;;;;;;5110407;28;19965;-67
2023/05/02 14:38:34;;;;;;;;;;;15.40;48.60;;;;;;5108435;28;19926;-67
2023/05/02 14:41:01;;;;;;;;;;;15.40;48.60;;;;;;5110605;28;19919;-68
2023/05/02 14:43:27;;;;;;;;;;;15.40;48.60;;;;;;5110253;28;19915;-67
2023/05/02 14:45:53;;;;;;;;;;;15.40;48.60;;;;;;5110290;28;19920;-67
2023/05/02 14:48:18;;;;;;;;;;;15.40;48.60;;;;;;5111166;28;19923;-68